North Cascades National Park, WA

2:48 PM PST on December 18, 2014 (GMT -0800)
Skagit Regional | Change Station
CLOSE
Current Station
Airport
Location: Burlington,
Elevation: 144 ft
Nearby Weather Stations
Active Advisory: Winter Weather Advisory

Elev 144 ft 48.47 °N, 122.42 °W | Updated 13 minutes ago

Rain
Rain
50 °F
Feels Like 50 °F
N
13
Wind Variable Wind from ESE

Today
High -- | Low -- °F
--% Chance of Precip.
Yesterday
High -- | Low -- °F
Precip. -- in
7:53 AM 4:11 PM
Waning Crescent, 12% visible
Pressure 29.80 in
Visibility 7.0 miles
Clouds Few 2700 ft
Mostly Cloudy 3500 ft
Overcast 4100 ft
Dew Point 45 °F
Humidity 82%
Rainfall 0.12 in
Snow Depth Not available.
UV 0 out of 12
Pollen .40 out of 12
Air Quality Not available.
Flu Activity Not available.
METAR KBVS 182235Z AUTO 11011KT 7SM FEW027 BKN035 OVC041 10/07 A2980 RMK A01 P000

More Conditions Fewer Conditions

Pressure 29.80 in
Visibility 7.0 miles
Clouds Few 2700 ft
Mostly Cloudy 3500 ft
Overcast 4100 ft
Dew Point 45 °F
Humidity 82%
Rainfall 0.12 in
Snow Depth Not available.
UV 0 out of 12
Pollen .40 out of 12
Air Quality Not available.
Flu Activity Not available.
METAR KBVS 182235Z AUTO 11011KT 7SM FEW027 BKN035 OVC041 10/07 A2980 RMK A01 P000

More Conditions Fewer Conditions

10-Day Weather Forecast

Almanac

Astronomy

Dec. 18, 2014 Rise Set
Actual Time
Civil Twilight
Nautical Twilight
Astronomical Twilight
Moon
Length of Visible Light
Length of Day
Tomorrow will be .
, % of the Moon is Illuminated

Today's Extremes

State Highs State Lows

Community

WunderPhotos

Upload Photos

1,779,010 photos uploaded!

WunderBlogs® & News

Nearby

Air Quality

  Air Quality AQ Index Pollutant
Not available.

Snow Depth

Station Depth Elevation

Earthquake Activity

City Distance Mag. Time & Date
Minimum magnitude displayed is 2.5.

Coastal Water Temperatures

Place Temperature

Nearby Weather Stations